sensor_id;sensor_type;location;lat;lon;timestamp;pressure;altitude;pressure_sealevel;temperature;humidity
41218;BME280;26950;50.960;7.138;2023-08-08T00:01:23;100571.63;;;19.70;57.68
41218;BME280;26950;50.960;7.138;2023-08-08T00:03:49;100584.16;;;18.10;62.07
41218;BME280;26950;50.960;7.138;2023-08-08T00:06:16;100577.75;;;18.61;61.40
41218;BME280;26950;50.960;7.138;2023-08-08T00:08:42;100571.59;;;19.74;58.51
41218;BME280;26950;50.960;7.138;2023-08-08T00:11:10;100567.53;;;20.18;56.69
41218;BME280;26950;50.960;7.138;2023-08-08T00:13:36;100559.88;;;19.89;57.66
41218;BME280;26950;50.960;7.138;2023-08-08T00:16:02;100565.31;;;19.81;58.07
41218;BME280;26950;50.960;7.138;2023-08-08T00:18:30;100551.00;;;19.88;58.39
41218;BME280;26950;50.960;7.138;2023-08-08T00:20:56;100552.88;;;18.77;60.46
41218;BME280;26950;50.960;7.138;2023-08-08T00:23:22;100561.28;;;17.38;65.22
41218;BME280;26950;50.960;7.138;2023-08-08T00:25:49;100554.16;;;17.92;64.43
41218;BME280;26950;50.960;7.138;2023-08-08T00:28:17;100543.88;;;18.95;60.93
41218;BME280;26950;50.960;7.138;2023-08-08T00:30:43;100554.88;;;19.57;58.31
41218;BME280;26950;50.960;7.138;2023-08-08T00:33:10;100564.94;;;19.24;58.87
41218;BME280;26950;50.960;7.138;2023-08-08T00:35:36;100560.69;;;19.96;57.52
41218;BME280;26950;50.960;7.138;2023-08-08T00:38:02;100552.19;;;20.37;55.82
41218;BME280;26950;50.960;7.138;2023-08-08T00:40:29;100554.72;;;18.68;61.06
41218;BME280;26950;50.960;7.138;2023-08-08T00:42:55;100549.56;;;19.54;58.97
41218;BME280;26950;50.960;7.138;2023-08-08T00:45:23;100552.81;;;18.86;59.76
41218;BME280;26950;50.960;7.138;2023-08-08T00:47:49;100544.75;;;18.97;59.89
41218;BME280;26950;50.960;7.138;2023-08-08T00:50:15;100544.72;;;19.96;56.74
41218;BME280;26950;50.960;7.138;2023-08-08T00:52:43;100535.88;;;19.90;56.47
41218;BME280;26950;50.960;7.138;2023-08-08T00:55:10;100544.28;;;19.51;57.66
41218;BME280;26950;50.960;7.138;2023-08-08T00:57:36;100541.03;;;20.04;56.56
41218;BME280;26950;50.960;7.138;2023-08-08T01:00:04;100534.28;;;19.77;57.03
41218;BME280;26950;50.960;7.138;2023-08-08T01:02:32;100540.91;;;20.18;55.73
41218;BME280;26950;50.960;7.138;2023-08-08T01:04:58;100537.16;;;20.31;54.84
41218;BME280;26950;50.960;7.138;2023-08-08T01:07:27;100536.31;;;20.28;55.00
41218;BME280;26950;50.960;7.138;2023-08-08T01:09:57;100538.13;;;20.26;55.07
41218;BME280;26950;50.960;7.138;2023-08-08T01:12:29;100539.03;;;20.23;55.02
41218;BME280;26950;50.960;7.138;2023-08-08T01:14:55;100541.13;;;19.98;55.34
41218;BME280;26950;50.960;7.138;2023-08-08T01:17:22;100531.09;;;20.20;55.13
41218;BME280;26950;50.960;7.138;2023-08-08T01:19:52;100532.94;;;20.15;55.60
41218;BME280;26950;50.960;7.138;2023-08-08T01:22:22;100538.22;;;20.19;55.28
41218;BME280;26950;50.960;7.138;2023-08-08T01:24:51;100544.75;;;19.92;56.18
41218;BME280;26950;50.960;7.138;2023-08-08T01:27:18;100539.56;;;19.80;56.61
41218;BME280;26950;50.960;7.138;2023-08-08T01:29:44;100539.97;;;20.20;55.41
41218;BME280;26950;50.960;7.138;2023-08-08T01:32:10;100541.88;;;20.09;55.75
41218;BME280;26950;50.960;7.138;2023-08-08T01:34:37;100539.25;;;20.05;55.50
41218;BME280;26950;50.960;7.138;2023-08-08T01:37:06;100536.34;;;20.26;55.04
41218;BME280;26950;50.960;7.138;2023-08-08T01:39:33;100543.84;;;19.93;55.94
41218;BME280;26950;50.960;7.138;2023-08-08T01:42:01;100534.13;;;19.92;56.71
41218;BME280;26950;50.960;7.138;2023-08-08T01:44:28;100536.41;;;19.40;57.49
41218;BME280;26950;50.960;7.138;2023-08-08T01:46:54;100524.06;;;20.14;55.17
41218;BME280;26950;50.960;7.138;2023-08-08T01:49:20;100530.91;;;19.57;56.17
41218;BME280;26950;50.960;7.138;2023-08-08T01:51:47;100528.91;;;18.79;58.13
41218;BME280;26950;50.960;7.138;2023-08-08T01:54:13;100529.44;;;19.25;58.50
41218;BME280;26950;50.960;7.138;2023-08-08T01:56:40;100531.47;;;19.89;56.47
41218;BME280;26950;50.960;7.138;2023-08-08T01:59:07;100529.41;;;20.13;55.56
41218;BME280;26950;50.960;7.138;2023-08-08T02:01:33;100525.78;;;20.17;55.53
41218;BME280;26950;50.960;7.138;2023-08-08T02:04:00;100538.41;;;20.03;55.30
41218;BME280;26950;50.960;7.138;2023-08-08T02:06:26;100535.03;;;19.88;55.83
41218;BME280;26950;50.960;7.138;2023-08-08T02:08:52;100535.97;;;19.83;56.38
41218;BME280;26950;50.960;7.138;2023-08-08T02:11:19;100531.03;;;19.45;57.82
41218;BME280;26950;50.960;7.138;2023-08-08T02:13:46;100515.25;;;20.08;55.70
41218;BME280;26950;50.960;7.138;2023-08-08T02:16:14;100524.84;;;19.41;57.76
41218;BME280;26950;50.960;7.138;2023-08-08T02:18:40;100517.47;;;19.72;56.88
41218;BME280;26950;50.960;7.138;2023-08-08T02:21:07;100524.22;;;19.13;57.83
41218;BME280;26950;50.960;7.138;2023-08-08T02:23:33;100512.84;;;19.88;56.53
41218;BME280;26950;50.960;7.138;2023-08-08T02:26:00;100508.91;;;20.19;55.07
41218;BME280;26950;50.960;7.138;2023-08-08T02:28:26;100503.50;;;20.26;54.94
41218;BME280;26950;50.960;7.138;2023-08-08T02:30:52;100504.72;;;19.97;54.85
41218;BME280;26950;50.960;7.138;2023-08-08T02:33:20;100505.53;;;20.05;55.25
41218;BME280;26950;50.960;7.138;2023-08-08T02:35:46;100504.72;;;20.00;54.78
41218;BME280;26950;50.960;7.138;2023-08-08T02:38:13;100504.50;;;19.37;57.15
41218;BME280;26950;50.960;7.138;2023-08-08T02:40:39;100499.53;;;19.88;54.85
41218;BME280;26950;50.960;7.138;2023-08-08T02:43:05;100496.91;;;19.86;55.12
41218;BME280;26950;50.960;7.138;2023-08-08T02:45:32;100501.19;;;19.13;56.50
41218;BME280;26950;50.960;7.138;2023-08-08T02:47:58;100498.44;;;17.75;60.61
41218;BME280;26950;50.960;7.138;2023-08-08T02:50:26;100494.72;;;18.16;61.08
41218;BME280;26950;50.960;7.138;2023-08-08T02:52:52;100490.22;;;19.46;56.64
41218;BME280;26950;50.960;7.138;2023-08-08T02:55:18;100485.78;;;18.37;59.17
41218;BME280;26950;50.960;7.138;2023-08-08T02:57:45;100488.66;;;17.91;60.86
41218;BME280;26950;50.960;7.138;2023-08-08T03:00:11;100491.50;;;16.98;64.11
41218;BME280;26950;50.960;7.138;2023-08-08T03:02:38;100488.81;;;17.32;63.68
41218;BME280;26950;50.960;7.138;2023-08-08T03:05:05;100485.78;;;18.32;60.43
41218;BME280;26950;50.960;7.138;2023-08-08T03:07:33;100478.06;;;19.20;57.64
41218;BME280;26950;50.960;7.138;2023-08-08T03:09:59;100488.44;;;19.46;56.22
41218;BME280;26950;50.960;7.138;2023-08-08T03:12:25;100482.13;;;19.56;56.06
41218;BME280;26950;50.960;7.138;2023-08-08T03:14:52;100478.41;;;19.74;55.31
41218;BME280;26950;50.960;7.138;2023-08-08T03:17:18;100483.28;;;19.29;56.27
41218;BME280;26950;50.960;7.138;2023-08-08T03:19:44;100478.84;;;18.07;59.93
41218;BME280;26950;50.960;7.138;2023-08-08T03:22:11;100479.00;;;19.13;56.60
41218;BME280;26950;50.960;7.138;2023-08-08T03:24:38;100471.94;;;19.09;56.19
41218;BME280;26950;50.960;7.138;2023-08-08T03:27:05;100463.19;;;18.99;56.57
41218;BME280;26950;50.960;7.138;2023-08-08T03:29:31;100465.16;;;18.73;57.52
41218;BME280;26950;50.960;7.138;2023-08-08T03:31:57;100464.72;;;19.23;56.08
41218;BME280;26950;50.960;7.138;2023-08-08T03:34:24;100460.97;;;19.41;55.36
41218;BME280;26950;50.960;7.138;2023-08-08T03:36:50;100473.81;;;19.01;56.94
41218;BME280;26950;50.960;7.138;2023-08-08T03:39:16;100468.25;;;19.25;55.82
41218;BME280;26950;50.960;7.138;2023-08-08T03:41:44;100454.88;;;19.33;55.49
41218;BME280;26950;50.960;7.138;2023-08-08T03:44:10;100457.91;;;18.95;57.07
41218;BME280;26950;50.960;7.138;2023-08-08T03:46:36;100466.53;;;19.17;56.21
41218;BME280;26950;50.960;7.138;2023-08-08T03:49:03;100469.22;;;19.15;55.92
41218;BME280;26950;50.960;7.138;2023-08-08T03:51:29;100462.91;;;19.30;55.61
41218;BME280;26950;50.960;7.138;2023-08-08T03:53:55;100464.56;;;19.38;55.46
41218;BME280;26950;50.960;7.138;2023-08-08T03:56:22;100467.34;;;19.26;55.33
41218;BME280;26950;50.960;7.138;2023-08-08T03:58:50;100463.94;;;17.82;59.57
41218;BME280;26950;50.960;7.138;2023-08-08T04:01:16;100466.63;;;17.60;61.60
41218;BME280;26950;50.960;7.138;2023-08-08T04:03:42;100479.13;;;16.74;63.97
41218;BME280;26950;50.960;7.138;2023-08-08T04:06:08;100473.69;;;17.64;60.48
41218;BME280;26950;50.960;7.138;2023-08-08T04:08:35;100471.88;;;17.78;60.53
41218;BME280;26950;50.960;7.138;2023-08-08T04:11:01;100466.19;;;18.55;58.15
41218;BME280;26950;50.960;7.138;2023-08-08T04:13:27;100471.38;;;18.73;58.05
41218;BME280;26950;50.960;7.138;2023-08-08T04:15:55;100468.56;;;18.90;57.33
41218;BME280;26950;50.960;7.138;2023-08-08T04:18:21;100476.56;;;18.85;57.60
41218;BME280;26950;50.960;7.138;2023-08-08T04:20:48;100475.28;;;19.29;55.92
41218;BME280;26950;50.960;7.138;2023-08-08T04:23:14;100471.66;;;19.38;55.80
41218;BME280;26950;50.960;7.138;2023-08-08T04:25:40;100464.53;;;19.40;55.33
41218;BME280;26950;50.960;7.138;2023-08-08T04:28:07;100477.13;;;19.26;56.17
41218;BME280;26950;50.960;7.138;2023-08-08T04:30:33;100477.75;;;19.48;55.61
41218;BME280;26950;50.960;7.138;2023-08-08T04:33:01;100491.88;;;19.59;55.74
41218;BME280;26950;50.960;7.138;2023-08-08T04:35:28;100487.41;;;19.61;55.54
41218;BME280;26950;50.960;7.138;2023-08-08T04:37:54;100490.09;;;18.55;58.00
41218;BME280;26950;50.960;7.138;2023-08-08T04:40:20;100477.88;;;19.35;56.32
41218;BME280;26950;50.960;7.138;2023-08-08T04:42:47;100479.69;;;19.33;56.57
41218;BME280;26950;50.960;7.138;2023-08-08T04:45:13;100475.41;;;17.88;60.62
41218;BME280;26950;50.960;7.138;2023-08-08T04:47:39;100486.19;;;16.92;63.63
41218;BME280;26950;50.960;7.138;2023-08-08T04:50:07;100482.63;;;16.90;64.04
41218;BME280;26950;50.960;7.138;2023-08-08T04:52:34;100478.19;;;17.25;62.60
41218;BME280;26950;50.960;7.138;2023-08-08T04:55:00;100478.97;;;17.86;61.53
41218;BME280;26950;50.960;7.138;2023-08-08T04:57:27;100479.59;;;18.29;60.30
41218;BME280;26950;50.960;7.138;2023-08-08T04:59:53;100474.13;;;18.56;58.88
41218;BME280;26950;50.960;7.138;2023-08-08T05:02:19;100472.78;;;17.65;60.67
41218;BME280;26950;50.960;7.138;2023-08-08T05:04:46;100479.81;;;17.92;60.88
41218;BME280;26950;50.960;7.138;2023-08-08T05:07:14;100473.78;;;17.24;62.21
41218;BME280;26950;50.960;7.138;2023-08-08T05:09:40;100469.38;;;17.23;63.63
41218;BME280;26950;50.960;7.138;2023-08-08T05:12:06;100467.09;;;18.51;59.55
41218;BME280;26950;50.960;7.138;2023-08-08T05:14:33;100467.06;;;18.52;58.63
41218;BME280;26950;50.960;7.138;2023-08-08T05:17:02;100469.03;;;18.21;59.27
41218;BME280;26950;50.960;7.138;2023-08-08T05:19:28;100462.81;;;18.22;59.97
41218;BME280;26950;50.960;7.138;2023-08-08T05:21:54;100463.16;;;17.21;62.04
41218;BME280;26950;50.960;7.138;2023-08-08T05:24:22;100458.78;;;17.11;63.19
41218;BME280;26950;50.960;7.138;2023-08-08T05:26:48;100456.94;;;17.39;62.39
41218;BME280;26950;50.960;7.138;2023-08-08T05:29:15;100458.78;;;17.01;63.65
41218;BME280;26950;50.960;7.138;2023-08-08T05:31:41;100455.25;;;17.12;62.95
41218;BME280;26950;50.960;7.138;2023-08-08T05:34:07;100445.44;;;17.46;62.21
41218;BME280;26950;50.960;7.138;2023-08-08T05:36:34;100446.44;;;17.04;63.20
41218;BME280;26950;50.960;7.138;2023-08-08T05:39:00;100446.84;;;18.28;61.21
41218;BME280;26950;50.960;7.138;2023-08-08T05:41:28;100460.94;;;18.40;59.56
41218;BME280;26950;50.960;7.138;2023-08-08T05:43:54;100455.13;;;17.60;62.30
41218;BME280;26950;50.960;7.138;2023-08-08T05:46:20;100450.16;;;18.69;60.20
41218;BME280;26950;50.960;7.138;2023-08-08T05:48:47;100458.00;;;18.82;58.98
41218;BME280;26950;50.960;7.138;2023-08-08T05:51:13;100457.84;;;17.27;62.20
41218;BME280;26950;50.960;7.138;2023-08-08T05:53:39;100460.50;;;17.34;62.50
41218;BME280;26950;50.960;7.138;2023-08-08T05:56:05;100445.38;;;17.69;61.22
41218;BME280;26950;50.960;7.138;2023-08-08T05:58:35;100458.72;;;17.37;62.32
41218;BME280;26950;50.960;7.138;2023-08-08T06:01:02;100454.22;;;17.74;61.65
41218;BME280;26950;50.960;7.138;2023-08-08T06:03:31;100465.00;;;16.92;64.52
41218;BME280;26950;50.960;7.138;2023-08-08T06:05:57;100451.72;;;18.93;59.50
41218;BME280;26950;50.960;7.138;2023-08-08T06:08:24;100454.06;;;19.25;58.60
41218;BME280;26950;50.960;7.138;2023-08-08T06:10:50;100455.97;;;19.10;59.34
41218;BME280;26950;50.960;7.138;2023-08-08T06:13:16;100457.66;;;17.98;61.48
41218;BME280;26950;50.960;7.138;2023-08-08T06:15:44;100458.56;;;17.98;62.08
41218;BME280;26950;50.960;7.138;2023-08-08T06:18:10;100462.31;;;18.99;60.13
41218;BME280;26950;50.960;7.138;2023-08-08T06:20:37;100462.09;;;17.91;62.12
41218;BME280;26950;50.960;7.138;2023-08-08T06:23:03;100467.88;;;18.68;60.31
41218;BME280;26950;50.960;7.138;2023-08-08T06:25:30;100462.00;;;18.14;61.88
41218;BME280;26950;50.960;7.138;2023-08-08T06:27:56;100470.44;;;18.80;60.70
41218;BME280;26950;50.960;7.138;2023-08-08T06:30:22;100471.78;;;19.26;59.34
41218;BME280;26950;50.960;7.138;2023-08-08T06:32:50;100468.50;;;19.01;59.55
41218;BME280;26950;50.960;7.138;2023-08-08T06:35:16;100465.34;;;19.47;58.45
41218;BME280;26950;50.960;7.138;2023-08-08T06:37:43;100481.13;;;18.74;60.57
41218;BME280;26950;50.960;7.138;2023-08-08T06:40:10;100479.56;;;19.46;59.08
41218;BME280;26950;50.960;7.138;2023-08-08T06:42:37;100474.44;;;20.07;57.05
41218;BME280;26950;50.960;7.138;2023-08-08T06:45:04;100477.53;;;18.77;60.78
41218;BME280;26950;50.960;7.138;2023-08-08T06:47:31;100474.59;;;19.92;57.73
41218;BME280;26950;50.960;7.138;2023-08-08T06:49:58;100473.78;;;19.05;60.54
41218;BME280;26950;50.960;7.138;2023-08-08T06:52:25;100475.59;;;18.99;61.36
41218;BME280;26950;50.960;7.138;2023-08-08T06:54:51;100464.78;;;19.16;60.07
41218;BME280;26950;50.960;7.138;2023-08-08T06:57:18;100473.28;;;19.53;59.61
41218;BME280;26950;50.960;7.138;2023-08-08T06:59:44;100465.16;;;19.66;58.81
41218;BME280;26950;50.960;7.138;2023-08-08T07:02:15;100469.81;;;19.46;59.67
41218;BME280;26950;50.960;7.138;2023-08-08T07:04:42;100458.03;;;19.70;59.15
41218;BME280;26950;50.960;7.138;2023-08-08T07:07:09;100463.13;;;19.88;58.45
41218;BME280;26950;50.960;7.138;2023-08-08T07:09:36;100468.00;;;20.22;57.04
41218;BME280;26950;50.960;7.138;2023-08-08T07:12:02;100455.38;;;19.70;58.53
41218;BME280;26950;50.960;7.138;2023-08-08T07:14:29;100459.59;;;20.53;56.36
41218;BME280;26950;50.960;7.138;2023-08-08T07:16:55;100457.22;;;20.90;55.42
41218;BME280;26950;50.960;7.138;2023-08-08T07:19:21;100454.69;;;20.22;57.05
41218;BME280;26950;50.960;7.138;2023-08-08T07:21:48;100451.50;;;20.59;56.09
41218;BME280;26950;50.960;7.138;2023-08-08T07:24:16;100449.69;;;21.13;54.67
41218;BME280;26950;50.960;7.138;2023-08-08T07:26:43;100458.22;;;20.24;57.57
41218;BME280;26950;50.960;7.138;2023-08-08T07:29:09;100455.72;;;20.72;55.87
41218;BME280;26950;50.960;7.138;2023-08-08T07:31:36;100450.47;;;20.69;55.46
41218;BME280;26950;50.960;7.138;2023-08-08T07:34:02;100453.03;;;20.75;56.16
41218;BME280;26950;50.960;7.138;2023-08-08T07:36:28;100449.28;;;20.85;55.58
41218;BME280;26950;50.960;7.138;2023-08-08T07:38:54;100444.78;;;20.89;55.00
41218;BME280;26950;50.960;7.138;2023-08-08T07:41:26;100445.47;;;20.98;55.14
41218;BME280;26950;50.960;7.138;2023-08-08T07:43:52;100435.50;;;21.10;54.78
41218;BME280;26950;50.960;7.138;2023-08-08T07:46:18;100446.94;;;20.65;55.77
41218;BME280;26950;50.960;7.138;2023-08-08T07:48:45;100445.38;;;21.05;55.27
41218;BME280;26950;50.960;7.138;2023-08-08T07:51:11;100442.63;;;21.09;55.15
41218;BME280;26950;50.960;7.138;2023-08-08T07:53:37;100451.41;;;20.65;56.21
41218;BME280;26950;50.960;7.138;2023-08-08T07:56:04;100451.88;;;20.30;56.99
41218;BME280;26950;50.960;7.138;2023-08-08T07:58:32;100447.41;;;20.90;55.37
41218;BME280;26950;50.960;7.138;2023-08-08T08:00:58;100449.56;;;20.07;57.46
41218;BME280;26950;50.960;7.138;2023-08-08T08:03:25;100450.16;;;20.27;56.97
41218;BME280;26950;50.960;7.138;2023-08-08T08:05:52;100447.34;;;20.36;56.59
41218;BME280;26950;50.960;7.138;2023-08-08T08:08:18;100451.91;;;20.28;56.42
41218;BME280;26950;50.960;7.138;2023-08-08T08:10:46;100448.34;;;20.29;57.02
41218;BME280;26950;50.960;7.138;2023-08-08T08:13:13;100453.22;;;20.63;55.46
41218;BME280;26950;50.960;7.138;2023-08-08T08:15:41;100455.13;;;20.53;55.98
41218;BME280;26950;50.960;7.138;2023-08-08T08:18:07;100462.97;;;20.01;57.56
41218;BME280;26950;50.960;7.138;2023-08-08T08:20:34;100461.69;;;20.31;56.71
41218;BME280;26950;50.960;7.138;2023-08-08T08:23:00;100446.00;;;21.20;54.05
41218;BME280;26950;50.960;7.138;2023-08-08T08:25:26;100442.06;;;19.67;57.87
41218;BME280;26950;50.960;7.138;2023-08-08T08:27:53;100439.56;;;20.24;57.44
41218;BME280;26950;50.960;7.138;2023-08-08T08:30:19;100441.38;;;20.79;55.80
41218;BME280;26950;50.960;7.138;2023-08-08T08:32:49;100438.72;;;21.32;55.31
41218;BME280;26950;50.960;7.138;2023-08-08T08:35:16;100435.53;;;21.58;54.17
41218;BME280;26950;50.960;7.138;2023-08-08T08:37:43;100437.22;;;21.14;54.61
41218;BME280;26950;50.960;7.138;2023-08-08T08:40:09;100440.72;;;20.65;55.89
41218;BME280;26950;50.960;7.138;2023-08-08T08:42:37;100430.47;;;20.93;54.31
41218;BME280;26950;50.960;7.138;2023-08-08T08:45:04;100431.19;;;21.02;54.13
41218;BME280;26950;50.960;7.138;2023-08-08T08:47:31;100430.06;;;20.65;55.35
41218;BME280;26950;50.960;7.138;2023-08-08T08:49:58;100436.59;;;20.44;56.10
41218;BME280;26950;50.960;7.138;2023-08-08T08:52:26;100441.59;;;20.65;55.61
41218;BME280;26950;50.960;7.138;2023-08-08T08:54:53;100445.44;;;20.49;56.19
41218;BME280;26950;50.960;7.138;2023-08-08T08:57:20;100445.47;;;21.00;55.07
41218;BME280;26950;50.960;7.138;2023-08-08T08:59:48;100444.09;;;19.42;58.81
41218;BME280;26950;50.960;7.138;2023-08-08T09:02:14;100445.31;;;19.93;57.60
41218;BME280;26950;50.960;7.138;2023-08-08T09:04:42;100438.19;;;21.10;55.74
41218;BME280;26950;50.960;7.138;2023-08-08T09:07:10;100440.91;;;21.54;54.23
41218;BME280;26950;50.960;7.138;2023-08-08T09:09:36;100444.31;;;20.64;56.11
41218;BME280;26950;50.960;7.138;2023-08-08T09:12:03;100437.75;;;20.83;54.88
41218;BME280;26950;50.960;7.138;2023-08-08T09:14:30;100446.13;;;20.62;55.20
41218;BME280;26950;50.960;7.138;2023-08-08T09:16:57;100441.72;;;20.59;54.52
41218;BME280;26950;50.960;7.138;2023-08-08T09:19:23;100440.44;;;20.83;54.23
41218;BME280;26950;50.960;7.138;2023-08-08T09:21:51;100431.00;;;20.62;54.36
41218;BME280;26950;50.960;7.138;2023-08-08T09:24:19;100437.91;;;20.76;54.05
41218;BME280;26950;50.960;7.138;2023-08-08T09:26:45;100435.44;;;20.63;53.84
41218;BME280;26950;50.960;7.138;2023-08-08T09:29:13;100438.81;;;20.74;53.03
41218;BME280;26950;50.960;7.138;2023-08-08T09:31:39;100434.66;;;20.55;54.11
41218;BME280;26950;50.960;7.138;2023-08-08T09:34:06;100436.22;;;21.19;52.14
41218;BME280;26950;50.960;7.138;2023-08-08T09:36:33;100431.41;;;21.40;51.71
41218;BME280;26950;50.960;7.138;2023-08-08T09:39:00;100427.31;;;21.20;51.35
41218;BME280;26950;50.960;7.138;2023-08-08T09:41:28;100428.91;;;20.81;52.93
41218;BME280;26950;50.960;7.138;2023-08-08T09:43:54;100430.28;;;19.88;55.43
41218;BME280;26950;50.960;7.138;2023-08-08T09:46:21;100428.59;;;20.42;53.34
41218;BME280;26950;50.960;7.138;2023-08-08T09:48:48;100434.03;;;20.38;53.15
41218;BME280;26950;50.960;7.138;2023-08-08T09:51:14;100430.16;;;20.59;53.23
41218;BME280;26950;50.960;7.138;2023-08-08T09:53:41;100414.56;;;20.88;52.12
41218;BME280;26950;50.960;7.138;2023-08-08T09:56:07;100434.94;;;20.35;53.21
41218;BME280;26950;50.960;7.138;2023-08-08T09:58:35;100436.31;;;20.64;52.12
41218;BME280;26950;50.960;7.138;2023-08-08T10:01:02;100426.41;;;21.21;51.01
41218;BME280;26950;50.960;7.138;2023-08-08T10:03:29;100439.16;;;21.97;48.94
41218;BME280;26950;50.960;7.138;2023-08-08T10:05:57;100429.94;;;21.22;50.83
41218;BME280;26950;50.960;7.138;2023-08-08T10:08:23;100431.69;;;21.71;49.54
41218;BME280;26950;50.960;7.138;2023-08-08T10:10:50;100432.31;;;21.40;50.34
41218;BME280;26950;50.960;7.138;2023-08-08T10:13:19;100430.81;;;21.70;50.02
41218;BME280;26950;50.960;7.138;2023-08-08T10:15:46;100426.88;;;21.88;49.28
41218;BME280;26950;50.960;7.138;2023-08-08T10:18:13;100428.94;;;21.75;49.16
41218;BME280;26950;50.960;7.138;2023-08-08T10:20:41;100450.56;;;21.14;50.93
41218;BME280;26950;50.960;7.138;2023-08-08T10:23:08;100436.81;;;21.37;50.04
41218;BME280;26950;50.960;7.138;2023-08-08T10:25:34;100435.44;;;21.61;49.29
41218;BME280;26950;50.960;7.138;2023-08-08T10:28:02;100439.34;;;21.44;49.31
41218;BME280;26950;50.960;7.138;2023-08-08T10:30:29;100439.34;;;21.44;49.76
41218;BME280;26950;50.960;7.138;2023-08-08T10:32:57;100438.28;;;21.04;50.65
41218;BME280;26950;50.960;7.138;2023-08-08T10:35:34;100430.81;;;21.70;49.63
41218;BME280;26950;50.960;7.138;2023-08-08T10:38:00;100440.03;;;21.97;48.74
41218;BME280;26950;50.960;7.138;2023-08-08T10:40:31;100439.63;;;21.75;49.60
41218;BME280;26950;50.960;7.138;2023-08-08T10:42:58;100427.28;;;22.10;49.49
41218;BME280;26950;50.960;7.138;2023-08-08T10:45:28;100431.53;;;21.34;49.67
41218;BME280;26950;50.960;7.138;2023-08-08T10:47:55;100427.63;;;21.04;49.60
41218;BME280;26950;50.960;7.138;2023-08-08T10:50:23;100428.44;;;21.57;48.27
41218;BME280;26950;50.960;7.138;2023-08-08T10:52:50;100429.31;;;21.57;48.56
41218;BME280;26950;50.960;7.138;2023-08-08T10:55:20;100431.09;;;21.55;48.24
41218;BME280;26950;50.960;7.138;2023-08-08T10:57:57;100423.84;;;21.63;47.72
41218;BME280;26950;50.960;7.138;2023-08-08T11:00:24;100420.31;;;22.42;46.36
41218;BME280;26950;50.960;7.138;2023-08-08T11:02:51;100428.69;;;22.28;46.24
41218;BME280;26950;50.960;7.138;2023-08-08T11:05:18;100430.09;;;22.43;46.60
41218;BME280;26950;50.960;7.138;2023-08-08T11:07:46;100429.56;;;22.66;45.71
41218;BME280;26950;50.960;7.138;2023-08-08T11:10:12;100432.75;;;22.44;45.45
41218;BME280;26950;50.960;7.138;2023-08-08T11:12:41;100433.44;;;22.15;47.30
41218;BME280;26950;50.960;7.138;2023-08-08T11:15:08;100431.09;;;21.57;47.52
41218;BME280;26950;50.960;7.138;2023-08-08T11:17:35;100426.78;;;22.33;45.78
41218;BME280;26950;50.960;7.138;2023-08-08T11:20:02;100435.41;;;21.62;46.86
41218;BME280;26950;50.960;7.138;2023-08-08T11:22:29;100428.25;;;21.64;47.40
41218;BME280;26950;50.960;7.138;2023-08-08T11:24:57;100434.13;;;22.23;45.74
41218;BME280;26950;50.960;7.138;2023-08-08T11:27:29;100431.25;;;22.31;46.51
41218;BME280;26950;50.960;7.138;2023-08-08T11:29:56;100430.38;;;22.32;46.62
41218;BME280;26950;50.960;7.138;2023-08-08T11:32:22;100429.84;;;22.16;46.02
41218;BME280;26950;50.960;7.138;2023-08-08T11:34:49;100426.97;;;22.24;46.01
41218;BME280;26950;50.960;7.138;2023-08-08T11:37:16;100423.97;;;22.38;45.58
41218;BME280;26950;50.960;7.138;2023-08-08T11:39:43;100425.91;;;22.68;45.50
41218;BME280;26950;50.960;7.138;2023-08-08T11:42:13;100424.75;;;22.44;45.70
41218;BME280;26950;50.960;7.138;2023-08-08T11:44:40;100423.31;;;22.65;45.61
41218;BME280;26950;50.960;7.138;2023-08-08T11:47:07;100416.13;;;22.67;45.38
41218;BME280;26950;50.960;7.138;2023-08-08T11:49:39;100411.00;;;22.95;45.32
41218;BME280;26950;50.960;7.138;2023-08-08T11:52:06;100413.16;;;23.15;45.05
41218;BME280;26950;50.960;7.138;2023-08-08T11:54:32;100406.75;;;22.49;44.76
41218;BME280;26950;50.960;7.138;2023-08-08T11:57:00;100404.81;;;22.20;45.97
41218;BME280;26950;50.960;7.138;2023-08-08T11:59:28;100408.38;;;22.56;44.75
41218;BME280;26950;50.960;7.138;2023-08-08T12:01:54;100402.22;;;21.75;46.71
41218;BME280;26950;50.960;7.138;2023-08-08T12:04:21;100396.00;;;22.15;45.31
41218;BME280;26950;50.960;7.138;2023-08-08T12:06:48;100399.38;;;22.23;45.46
41218;BME280;26950;50.960;7.138;2023-08-08T12:09:14;100401.06;;;22.27;44.76
41218;BME280;26950;50.960;7.138;2023-08-08T12:11:40;100398.41;;;22.27;44.94
41218;BME280;26950;50.960;7.138;2023-08-08T12:14:07;100403.19;;;22.50;43.67
41218;BME280;26950;50.960;7.138;2023-08-08T12:16:37;100390.97;;;22.01;44.79
41218;BME280;26950;50.960;7.138;2023-08-08T12:19:04;100383.34;;;21.41;45.67
41218;BME280;26950;50.960;7.138;2023-08-08T12:21:34;100397.50;;;21.88;45.58
41218;BME280;26950;50.960;7.138;2023-08-08T12:24:00;100394.63;;;21.96;45.24
41218;BME280;26950;50.960;7.138;2023-08-08T12:26:27;100393.84;;;22.31;44.08
41218;BME280;26950;50.960;7.138;2023-08-08T12:28:54;100385.78;;;21.52;45.80
41218;BME280;26950;50.960;7.138;2023-08-08T12:31:20;100398.63;;;22.17;45.03
41218;BME280;26950;50.960;7.138;2023-08-08T12:33:48;100393.75;;;21.95;44.95
41218;BME280;26950;50.960;7.138;2023-08-08T12:36:14;100400.03;;;21.52;45.04
41218;BME280;26950;50.960;7.138;2023-08-08T12:38:41;100406.22;;;21.96;44.64
41218;BME280;26950;50.960;7.138;2023-08-08T12:41:07;100391.03;;;21.97;44.33
41218;BME280;26950;50.960;7.138;2023-08-08T12:43:35;100390.72;;;22.12;44.17
41218;BME280;26950;50.960;7.138;2023-08-08T12:46:01;100405.97;;;22.07;44.43
41218;BME280;26950;50.960;7.138;2023-08-08T12:48:28;100396.25;;;22.03;43.90